Time;durP1;ratioP1;P1;durP2;ratioP2;P2;SDS_P1;SDS_P2;PMS_P1;PMS_P2;Temp;Humidity;BMP_temperature;BMP_pressure;BME280_temperature;BME280_humidity;BME280_pressure;Samples;Min_cycle;Max_cycle;Signal;HPM_P1;HPM_P2
2022/10/23 00:01:43;;;;;;;31.25;14.23;;;10.90;99.90;;;;;;6086662;23;20077;-88
2022/10/23 00:04:18;;;;;;;28.13;15.43;;;10.90;99.90;;;;;;6086514;23;20017;-87
2022/10/23 00:06:44;;;;;;;138.95;19.05;;;11.00;99.90;;;;;;6086814;23;20073;-87
2022/10/23 00:09:12;;;;;;;104.22;17.17;;;10.90;99.90;;;;;;6086571;23;20017;-87
2022/10/23 00:11:43;;;;;;;25.38;14.20;;;11.00;99.90;;;;;;6084497;23;20022;-87
2022/10/23 00:14:09;;;;;;;55.83;14.88;;;10.90;99.90;;;;;;6087191;23;20395;-87
2022/10/23 00:16:35;;;;;;;25.73;13.70;;;10.80;99.90;;;;;;6087355;23;20024;-88
2022/10/23 00:19:04;;;;;;;21.92;13.52;;;10.90;99.90;;;;;;6111062;23;20018;-88
2022/10/23 00:21:30;;;;;;;22.23;13.98;;;10.90;99.90;;;;;;6085317;23;20013;-87
2022/10/23 00:23:58;;;;;;;28.83;14.73;;;10.90;99.90;;;;;;6085965;23;20025;-87
2022/10/23 00:26:24;;;;;;;28.55;15.82;;;10.90;99.90;;;;;;6084630;23;20628;-87
2022/10/23 00:28:52;;;;;;;22.23;13.15;;;11.00;99.90;;;;;;6085360;23;20530;-87
2022/10/23 00:31:22;;;;;;;281.13;28.02;;;10.90;99.90;;;;;;6111058;23;20033;-87
2022/10/23 00:33:50;;;;;;;43.22;14.52;;;10.90;99.90;;;;;;6085023;23;20451;-87
2022/10/23 00:36:18;;;;;;;31.58;16.35;;;10.90;99.90;;;;;;6085653;23;20025;-88
2022/10/23 00:38:45;;;;;;;144.52;16.30;;;10.90;99.90;;;;;;6085328;23;20510;-88
2022/10/23 00:41:24;;;;;;;118.70;18.95;;;10.90;99.90;;;;;;6108080;23;20018;-87
2022/10/23 00:44:20;;;;;;;28.98;16.00;;;10.90;99.90;;;;;;6087117;23;20533;-87
2022/10/23 00:46:46;;;;;;;30.25;16.65;;;10.90;99.90;;;;;;6109616;23;20099;-87
2022/10/23 00:49:24;;;;;;;276.98;31.20;;;10.90;99.90;;;;;;6110331;23;20443;-87
2022/10/23 00:52:03;;;;;;;91.57;19.38;;;10.90;99.90;;;;;;6085737;23;20029;-86
2022/10/23 00:54:34;;;;;;;27.55;16.25;;;10.90;99.90;;;;;;6084345;23;20018;-87
2022/10/23 00:57:05;;;;;;;26.27;16.33;;;10.90;99.90;;;;;;6085601;23;20014;-88
2022/10/23 00:59:32;;;;;;;31.02;18.90;;;10.90;99.90;;;;;;6085714;23;20014;-86
2022/10/23 01:01:58;;;;;;;249.32;27.25;;;11.00;99.90;;;;;;6110654;23;20017;-87
2022/10/23 01:04:26;;;;;;;37.35;18.52;;;11.00;99.90;;;;;;6086838;23;20022;-88
2022/10/23 01:07:03;;;;;;;33.03;18.27;;;11.00;99.90;;;;;;6086330;23;20104;-87
2022/10/23 01:09:53;;;;;;;34.25;19.92;;;11.10;99.90;;;;;;6085341;23;20017;-87
2022/10/23 01:12:22;;;;;;;35.10;21.30;;;11.10;99.90;;;;;;6084303;23;20587;-87
2022/10/23 01:15:05;;;;;;;37.03;21.33;;;11.10;99.90;;;;;;6084275;23;20073;-87
2022/10/23 01:18:18;;;;;;;31.08;18.73;;;11.20;99.90;;;;;;6110230;23;20014;-88
2022/10/23 01:20:58;;;;;;;46.20;21.48;;;11.20;99.90;;;;;;6058621;23;20018;-87
2022/10/23 01:23:45;;;;;;;37.05;19.85;;;11.20;99.90;;;;;;6085336;23;20197;-86
2022/10/23 01:26:30;;;;;;;37.20;21.67;;;11.10;99.90;;;;;;6082545;23;20014;-87
2022/10/23 01:29:11;;;;;;;36.17;21.15;;;11.10;99.90;;;;;;6085705;23;20020;-88
2022/10/23 01:31:52;;;;;;;34.67;20.80;;;11.20;99.90;;;;;;6084958;23;20561;-85
2022/10/23 01:34:26;;;;;;;40.97;21.73;;;11.20;99.90;;;;;;6085068;23;20060;-86
2022/10/23 01:36:54;;;;;;;40.83;21.23;;;11.20;99.90;;;;;;6084637;23;20110;-85
2022/10/23 01:39:34;;;;;;;37.78;20.60;;;11.20;99.90;;;;;;6083363;23;20018;-85
2022/10/23 01:42:10;;;;;;;42.85;21.48;;;11.20;99.90;;;;;;6108914;23;20052;-85
2022/10/23 01:44:44;;;;;;;35.10;20.95;;;11.20;99.90;;;;;;6086129;23;20455;-85
2022/10/23 01:47:12;;;;;;;34.60;19.10;;;11.20;99.90;;;;;;6085650;23;20340;-85
2022/10/23 01:49:40;;;;;;;39.42;20.58;;;11.10;99.90;;;;;;6085751;23;20277;-86
2022/10/23 01:52:10;;;;;;;38.97;20.38;;;11.20;99.90;;;;;;6110017;23;20018;-85
2022/10/23 01:54:44;;;;;;;213.00;31.77;;;11.10;99.90;;;;;;6085303;23;20029;-85
2022/10/23 01:57:16;;;;;;;46.15;22.27;;;11.10;99.90;;;;;;6084334;23;20010;-86
2022/10/23 01:59:47;;;;;;;37.17;20.33;;;11.10;99.90;;;;;;6085043;23;20018;-85
2022/10/23 02:02:15;;;;;;;52.28;21.13;;;11.00;99.90;;;;;;6085473;23;20024;-87
2022/10/23 02:05:19;;;;;;;35.63;18.95;;;11.00;99.90;;;;;;6110089;23;20021;-85
2022/10/23 02:07:45;;;;;;;159.70;24.65;;;11.10;99.90;;;;;;6085018;23;20024;-85
2022/10/23 02:10:14;;;;;;;36.50;19.52;;;11.10;99.90;;;;;;6083277;23;20574;-86
2022/10/23 02:13:06;;;;;;;71.50;21.98;;;11.00;99.90;;;;;;6083667;23;20021;-86
2022/10/23 02:15:43;;;;;;;37.85;20.52;;;11.00;99.90;;;;;;6108244;23;20161;-85
2022/10/23 02:18:33;;;;;;;44.67;22.60;;;11.00;99.90;;;;;;6085342;23;20018;-86
2022/10/23 02:21:10;;;;;;;40.13;20.02;;;11.10;99.90;;;;;;6067930;23;20037;-86
2022/10/23 02:23:53;;;;;;;34.55;21.02;;;11.10;99.90;;;;;;6083915;23;20018;-86
2022/10/23 02:26:40;;;;;;;36.35;21.13;;;11.20;99.90;;;;;;6085631;23;20022;-86
2022/10/23 02:29:08;;;;;;;46.55;23.40;;;11.10;99.90;;;;;;6110852;23;20018;-85
2022/10/23 02:31:34;;;;;;;37.25;21.67;;;11.10;99.90;;;;;;6086588;23;20029;-87
2022/10/23 02:34:03;;;;;;;38.05;21.52;;;11.10;99.90;;;;;;6085678;23;20053;-87
2022/10/23 02:36:31;;;;;;;35.67;21.67;;;11.20;99.90;;;;;;6085709;23;20340;-86
2022/10/23 02:39:00;;;;;;;39.55;21.38;;;11.20;99.90;;;;;;6085099;23;20021;-85
2022/10/23 02:42:09;;;;;;;31.48;20.48;;;11.30;99.90;;;;;;6083992;23;20346;-86
2022/10/23 02:44:45;;;;;;;38.17;22.83;;;11.40;99.90;;;;;;6084984;23;20022;-86
2022/10/23 02:47:32;;;;;;;36.40;21.08;;;11.50;99.90;;;;;;6084861;23;20021;-85
2022/10/23 02:50:22;;;;;;;41.65;22.33;;;11.50;99.90;;;;;;6086596;23;20060;-85
2022/10/23 02:53:14;;;;;;;38.92;20.80;;;11.40;99.90;;;;;;6088330;23;20355;-86
2022/10/23 02:56:07;;;;;;;36.97;21.00;;;11.40;99.90;;;;;;6086379;23;20144;-86
2022/10/23 02:59:06;;;;;;;39.25;21.95;;;11.40;99.90;;;;;;6111905;23;20010;-85
2022/10/23 03:01:48;;;;;;;33.30;20.77;;;11.40;99.90;;;;;;6087838;23;20209;-86
2022/10/23 03:04:16;;;;;;;39.80;22.48;;;11.40;99.90;;;;;;6087613;23;20036;-86
2022/10/23 03:06:42;;;;;;;40.42;21.55;;;11.30;99.90;;;;;;6086424;23;20081;-86
2022/10/23 03:09:18;;;;;;;35.53;19.15;;;11.30;99.90;;;;;;6084332;23;20018;-86
2022/10/23 03:11:46;;;;;;;33.47;19.98;;;11.30;99.90;;;;;;6110621;23;20014;-86
2022/10/23 03:14:14;;;;;;;38.13;20.02;;;11.20;99.90;;;;;;6087343;23;20028;-85
2022/10/23 03:16:49;;;;;;;39.95;20.98;;;11.30;99.90;;;;;;6088914;23;20272;-85
2022/10/23 03:19:22;;;;;;;37.00;20.13;;;11.20;99.90;;;;;;6088930;23;20092;-85
2022/10/23 03:21:48;;;;;;;36.20;19.67;;;11.20;99.90;;;;;;6087339;23;20463;-87
2022/10/23 03:24:13;;;;;;;33.40;19.60;;;11.20;99.90;;;;;;6085603;23;20029;-86
2022/10/23 03:26:39;;;;;;;39.22;20.98;;;11.20;99.90;;;;;;6086286;23;20392;-85
2022/10/23 03:29:41;;;;;;;36.88;20.90;;;11.30;99.90;;;;;;6086627;23;20045;-85
2022/10/23 03:32:03;;;;;;;34.83;20.00;;;11.20;99.90;;;;;;6105641;23;20087;-86
2022/10/23 03:34:35;;;;;;;32.28;19.38;;;11.10;99.90;;;;;;6087577;23;20033;-85
2022/10/23 03:37:00;;;;;;;37.03;21.73;;;11.20;99.90;;;;;;6086603;23;20060;-86
2022/10/23 03:39:29;;;;;;;34.38;19.35;;;11.20;99.90;;;;;;6111119;23;20017;-85
2022/10/23 03:42:03;;;;;;;36.13;20.38;;;11.20;99.90;;;;;;6109728;23;20021;-86
2022/10/23 03:44:37;;;;;;;41.80;20.88;;;11.10;99.90;;;;;;6087511;23;20024;-86
2022/10/23 03:47:02;;;;;;;32.55;18.83;;;11.10;99.90;;;;;;6111191;23;20025;-86
2022/10/23 03:49:35;;;;;;;34.70;19.48;;;11.10;99.90;;;;;;6087751;23;20352;-87
2022/10/23 03:52:01;;;;;;;30.45;18.55;;;11.10;99.90;;;;;;6086170;23;20017;-86
2022/10/23 03:54:30;;;;;;;33.58;19.10;;;11.10;99.90;;;;;;6085498;23;20455;-86
2022/10/23 03:57:02;;;;;;;30.10;18.13;;;10.90;99.90;;;;;;6084410;23;20044;-86
2022/10/23 03:59:28;;;;;;;25.52;17.08;;;11.00;99.90;;;;;;6085345;23;20435;-85
2022/10/23 04:01:57;;;;;;;45.92;15.48;;;10.90;99.90;;;;;;6085706;23;20009;-85
2022/10/23 04:04:23;;;;;;;21.85;14.55;;;10.80;99.90;;;;;;6086713;23;20045;-86
2022/10/23 04:06:51;;;;;;;23.70;15.05;;;10.80;99.90;;;;;;6084788;23;20029;-87
2022/10/23 04:09:20;;;;;;;160.35;16.92;;;10.80;99.90;;;;;;6085526;23;20021;-86
2022/10/23 04:11:46;;;;;;;21.27;12.65;;;10.70;99.90;;;;;;6084249;23;20029;-86
2022/10/23 04:14:12;;;;;;;18.10;12.73;;;10.60;99.90;;;;;;6110026;23;20014;-85
2022/10/23 04:16:38;;;;;;;17.92;13.82;;;10.60;99.90;;;;;;6086556;23;20045;-86
2022/10/23 04:19:04;;;;;;;19.45;13.93;;;10.60;99.90;;;;;;6087459;23;20356;-86
2022/10/23 04:21:32;;;;;;;22.35;14.57;;;10.60;99.90;;;;;;6089744;23;20093;-85
2022/10/23 04:23:58;;;;;;;20.00;14.65;;;10.60;99.90;;;;;;6085828;23;20473;-85
2022/10/23 04:26:23;;;;;;;23.17;15.07;;;10.70;99.90;;;;;;6085206;23;20018;-85
2022/10/23 04:28:52;;;;;;;25.05;15.52;;;10.70;99.90;;;;;;6087306;23;20333;-86
2022/10/23 04:31:21;;;;;;;28.17;18.15;;;10.60;99.90;;;;;;6086320;23;20451;-85
2022/10/23 04:33:50;;;;;;;27.98;17.73;;;10.80;99.90;;;;;;6087406;23;20036;-86
2022/10/23 04:36:19;;;;;;;28.73;17.88;;;10.80;99.90;;;;;;6112946;23;20100;-86
2022/10/23 04:38:52;;;;;;;27.42;17.88;;;10.80;99.90;;;;;;6089174;23;20021;-86
2022/10/23 04:41:21;;;;;;;26.92;17.00;;;10.70;99.90;;;;;;6088955;23;20045;-85
2022/10/23 04:43:46;;;;;;;25.15;17.35;;;10.70;99.90;;;;;;6090697;23;20022;-86
2022/10/23 04:46:12;;;;;;;28.05;18.38;;;10.70;99.90;;;;;;6115009;23;20014;-85
2022/10/23 04:48:38;;;;;;;29.88;18.77;;;10.70;99.90;;;;;;6092439;23;20436;-85
2022/10/23 04:51:09;;;;;;;34.53;21.00;;;10.70;99.90;;;;;;6115318;23;20332;-86
2022/10/23 04:53:34;;;;;;;30.42;18.98;;;10.70;99.90;;;;;;6090838;23;20033;-85
2022/10/23 04:56:00;;;;;;;28.05;19.30;;;10.70;99.90;;;;;;6089306;23;20036;-85
2022/10/23 04:58:27;;;;;;;27.17;18.55;;;10.70;99.90;;;;;;6091369;23;20010;-85
2022/10/23 05:00:53;;;;;;;26.90;17.52;;;10.60;99.90;;;;;;6092638;23;20088;-85
2022/10/23 05:03:22;;;;;;;60.10;21.63;;;10.60;99.90;;;;;;6092350;23;20076;-85
2022/10/23 05:05:48;;;;;;;34.35;20.50;;;10.60;99.90;;;;;;6091203;23;20354;-86
2022/10/23 05:08:24;;;;;;;41.45;22.67;;;10.60;99.90;;;;;;6091800;23;20136;-85
2022/10/23 05:10:55;;;;;;;36.85;21.20;;;10.70;99.90;;;;;;6086739;23;20256;-85
2022/10/23 05:13:21;;;;;;;41.40;22.90;;;10.60;99.90;;;;;;6090951;23;20025;-85
2022/10/23 05:15:50;;;;;;;39.28;23.25;;;10.70;99.90;;;;;;6114848;23;20238;-86
2022/10/23 05:18:22;;;;;;;43.22;24.15;;;10.60;99.90;;;;;;6091891;23;20015;-85
2022/10/23 05:20:50;;;;;;;42.70;23.58;;;10.60;99.90;;;;;;6091866;23;20009;-86
2022/10/23 05:23:19;;;;;;;41.00;24.83;;;10.60;99.90;;;;;;6091994;23;20018;-86
2022/10/23 05:25:47;;;;;;;40.50;23.48;;;10.60;99.90;;;;;;6088588;23;20033;-86
2022/10/23 05:28:13;;;;;;;35.00;22.88;;;10.60;99.90;;;;;;6091510;23;20114;-86
2022/10/23 05:30:39;;;;;;;33.55;22.40;;;10.60;99.90;;;;;;6114423;23;20459;-85
2022/10/23 05:33:05;;;;;;;48.88;25.60;;;10.60;99.90;;;;;;6090522;23;20056;-87
2022/10/23 05:35:35;;;;;;;42.50;26.45;;;10.60;99.90;;;;;;6115389;23;20445;-86
2022/10/23 05:38:05;;;;;;;45.83;25.10;;;10.60;99.90;;;;;;6091730;23;20028;-84
2022/10/23 05:40:36;;;;;;;37.33;23.17;;;10.60;99.90;;;;;;6089271;23;20017;-85
2022/10/23 05:43:09;;;;;;;43.83;25.88;;;10.50;99.90;;;;;;6089561;23;20856;-86
2022/10/23 05:45:45;;;;;;;37.92;24.10;;;10.50;99.90;;;;;;6090085;23;20358;-85
2022/10/23 05:48:19;;;;;;;53.70;27.20;;;10.60;99.90;;;;;;6090443;23;20022;-87
2022/10/23 05:50:45;;;;;;;54.10;26.15;;;10.50;99.90;;;;;;6089192;23;20028;-86
2022/10/23 05:53:13;;;;;;;41.50;21.45;;;10.60;99.90;;;;;;6114742;23;20327;-86
2022/10/23 05:55:39;;;;;;;38.35;22.40;;;10.60;99.90;;;;;;6087540;23;20009;-85
2022/10/23 05:58:07;;;;;;;41.72;23.05;;;10.50;99.90;;;;;;6090440;23;20100;-86
2022/10/23 06:00:35;;;;;;;39.25;21.48;;;10.60;99.90;;;;;;6113063;23;20072;-85
2022/10/23 06:03:01;;;;;;;43.15;22.80;;;10.50;99.90;;;;;;6091037;23;20081;-86
2022/10/23 06:05:27;;;;;;;50.08;22.75;;;10.50;99.90;;;;;;6114079;23;20013;-85
2022/10/23 06:08:00;;;;;;;35.33;19.52;;;10.50;99.90;;;;;;6115843;23;20079;-85
2022/10/23 06:10:26;;;;;;;33.03;18.67;;;10.60;99.90;;;;;;6088551;23;20358;-86
2022/10/23 06:12:54;;;;;;;32.67;18.00;;;10.60;99.90;;;;;;6090020;23;20105;-85
2022/10/23 06:15:20;;;;;;;35.80;19.67;;;10.60;99.90;;;;;;6089992;23;20014;-86
2022/10/23 06:17:46;;;;;;;34.25;19.40;;;10.50;99.90;;;;;;6114775;23;20160;-87
2022/10/23 06:20:15;;;;;;;37.92;18.77;;;10.60;99.90;;;;;;6114272;23;20410;-86
2022/10/23 06:22:41;;;;;;;46.72;22.92;;;10.60;99.90;;;;;;6115250;23;20030;-86
2022/10/23 06:25:07;;;;;;;37.15;19.50;;;10.60;99.90;;;;;;6087109;23;20100;-85
2022/10/23 06:27:33;;;;;;;39.33;20.88;;;10.70;99.90;;;;;;6113687;23;20443;-85
2022/10/23 06:30:01;;;;;;;34.42;19.63;;;10.70;99.90;;;;;;6113857;23;20021;-86
2022/10/23 06:32:36;;;;;;;41.83;20.30;;;10.70;99.90;;;;;;6093596;23;20985;-86
2022/10/23 06:35:01;;;;;;;41.45;20.63;;;10.70;99.90;;;;;;6090635;23;20021;-85
2022/10/23 06:37:27;;;;;;;44.50;20.80;;;10.70;99.90;;;;;;6086456;23;20022;-85
2022/10/23 06:39:53;;;;;;;38.75;20.13;;;10.80;99.90;;;;;;6083997;23;20072;-85
2022/10/23 06:42:19;;;;;;;34.78;18.75;;;10.80;99.90;;;;;;6083948;23;20049;-85
2022/10/23 06:44:44;;;;;;;31.77;19.27;;;10.80;99.90;;;;;;6084169;23;20049;-85
2022/10/23 06:47:11;;;;;;;34.97;19.63;;;10.80;99.90;;;;;;6085383;23;20100;-86
2022/10/23 06:49:37;;;;;;;38.55;19.60;;;10.90;99.90;;;;;;6108027;23;20092;-86
2022/10/23 06:52:05;;;;;;;33.53;19.55;;;10.90;99.90;;;;;;6085072;23;20515;-86
2022/10/23 06:54:31;;;;;;;37.15;19.58;;;11.00;99.90;;;;;;6083411;23;20017;-85
2022/10/23 06:57:00;;;;;;;35.15;20.05;;;11.00;99.90;;;;;;6083098;23;20014;-86
2022/10/23 06:59:26;;;;;;;39.10;19.02;;;11.10;99.90;;;;;;6109418;23;20024;-86
2022/10/23 07:01:55;;;;;;;40.35;21.08;;;11.10;99.90;;;;;;6108949;23;20238;-87
2022/10/23 07:04:20;;;;;;;32.90;19.02;;;11.10;99.90;;;;;;6085340;23;20056;-86
2022/10/23 07:06:46;;;;;;;37.20;20.33;;;11.20;99.90;;;;;;6108639;23;20018;-86
2022/10/23 07:09:18;;;;;;;36.42;20.55;;;11.30;99.90;;;;;;6083502;23;20021;-86
2022/10/23 07:11:43;;;;;;;34.78;18.98;;;11.40;99.90;;;;;;6108902;23;20061;-86
2022/10/23 07:14:11;;;;;;;38.28;19.85;;;11.30;99.90;;;;;;6084640;23;20018;-86
2022/10/23 07:16:39;;;;;;;42.53;19.90;;;11.40;99.90;;;;;;6085364;23;20010;-85
2022/10/23 07:19:08;;;;;;;36.63;19.08;;;11.50;99.90;;;;;;6110513;23;20057;-86
2022/10/23 07:21:40;;;;;;;40.85;20.33;;;11.60;99.90;;;;;;6110095;23;20025;-87
2022/10/23 07:24:11;;;;;;;33.92;19.70;;;11.60;99.90;;;;;;6084382;23;20017;-85
2022/10/23 07:26:46;;;;;;;32.33;18.85;;;11.60;99.90;;;;;;6108522;23;20578;-86
2022/10/23 07:29:12;;;;;;;35.97;19.55;;;11.70;99.90;;;;;;6084085;23;20013;-85
2022/10/23 07:31:38;;;;;;;29.58;18.92;;;11.80;99.90;;;;;;6084294;23;20072;-85
2022/10/23 07:34:15;;;;;;;40.50;19.27;;;11.90;99.90;;;;;;6110201;23;20022;-85
2022/10/23 07:36:43;;;;;;;29.15;17.88;;;11.90;99.90;;;;;;6108668;23;20052;-85
2022/10/23 07:39:12;;;;;;;34.65;20.05;;;12.00;99.90;;;;;;6084777;23;20605;-85
2022/10/23 07:41:48;;;;;;;31.92;19.13;;;12.00;99.90;;;;;;6085206;23;20029;-86
2022/10/23 07:44:17;;;;;;;38.88;20.50;;;12.10;99.90;;;;;;6110183;23;20546;-85
2022/10/23 07:46:46;;;;;;;36.75;21.17;;;12.20;99.90;;;;;;6110204;23;20312;-85
2022/10/23 07:49:11;;;;;;;40.08;21.13;;;12.20;99.90;;;;;;6111255;23;20018;-86
2022/10/23 07:51:40;;;;;;;42.53;23.55;;;12.20;99.90;;;;;;6088159;23;20014;-85
2022/10/23 07:54:10;;;;;;;34.83;21.80;;;12.40;99.90;;;;;;6110991;23;20018;-85
2022/10/23 07:56:36;;;;;;;39.63;21.95;;;12.30;99.90;;;;;;6085997;23;20026;-86
2022/10/23 07:59:02;;;;;;;39.83;23.65;;;12.50;99.90;;;;;;6087856;23;20116;-85
2022/10/23 08:01:48;;;;;;;40.35;24.27;;;12.50;99.90;;;;;;6112129;23;20048;-86
2022/10/23 08:04:19;;;;;;;35.10;21.60;;;12.60;99.90;;;;;;6111219;23;20500;-85
2022/10/23 08:06:48;;;;;;;34.42;21.00;;;12.70;99.90;;;;;;6085224;23;20068;-87
2022/10/23 08:09:24;;;;;;;32.20;18.50;;;12.80;99.90;;;;;;6110193;23;20061;-85
2022/10/23 08:11:59;;;;;;;31.25;17.75;;;12.70;99.90;;;;;;6085611;23;20014;-85
2022/10/23 08:14:27;;;;;;;30.48;18.02;;;12.80;99.90;;;;;;6110825;23;20411;-87
2022/10/23 08:16:55;;;;;;;27.73;16.60;;;13.00;99.90;;;;;;6086203;23;20111;-86
2022/10/23 08:19:24;;;;;;;31.60;17.45;;;13.10;99.90;;;;;;6086631;23;20459;-85
2022/10/23 08:21:53;;;;;;;30.20;17.00;;;12.90;99.90;;;;;;6086727;23;20033;-85
2022/10/23 08:24:22;;;;;;;28.05;15.95;;;13.10;99.90;;;;;;6086194;23;20085;-84
2022/10/23 08:26:52;;;;;;;26.90;16.13;;;13.30;99.90;;;;;;6111711;23;20049;-85
2022/10/23 08:29:20;;;;;;;27.92;16.10;;;13.40;99.90;;;;;;6087424;23;20050;-86
2022/10/23 08:31:46;;;;;;;23.95;15.60;;;13.40;99.90;;;;;;6086112;23;20014;-85
2022/10/23 08:34:17;;;;;;;22.23;14.88;;;13.50;99.90;;;;;;6086694;23;20102;-85
2022/10/23 08:36:49;;;;;;;27.40;15.65;;;13.50;99.90;;;;;;6086179;23;20029;-86
2022/10/23 08:39:15;;;;;;;21.60;13.57;;;13.60;99.90;;;;;;6108493;23;20025;-85
2022/10/23 08:41:49;;;;;;;22.48;13.35;;;13.80;99.90;;;;;;6084497;23;20123;-86
2022/10/23 08:44:34;;;;;;;21.60;13.23;;;13.80;99.90;;;;;;6084885;23;20367;-86
2022/10/23 08:47:12;;;;;;;22.40;12.65;;;13.80;99.90;;;;;;6108223;23;20459;-85
2022/10/23 08:50:02;;;;;;;25.50;12.30;;;13.70;99.90;;;;;;6083115;23;20029;-85
2022/10/23 08:52:51;;;;;;;19.92;12.48;;;13.80;99.90;;;;;;6083839;23;20060;-86
2022/10/23 08:55:28;;;;;;;18.35;11.70;;;13.90;99.90;;;;;;6107179;23;20018;-85
2022/10/23 08:58:09;;;;;;;17.85;11.52;;;13.90;99.90;;;;;;6085122;23;20014;-85
2022/10/23 09:00:35;;;;;;;21.05;11.15;;;14.10;99.90;;;;;;6086778;23;20403;-85
2022/10/23 09:03:04;;;;;;;18.48;11.30;;;14.00;99.90;;;;;;6085188;23;20014;-86
2022/10/23 09:05:38;;;;;;;19.77;11.07;;;14.20;99.90;;;;;;6085086;23;20032;-86
2022/10/23 09:08:47;;;;;;;15.57;9.73;;;14.20;99.90;;;;;;6110653;23;20383;-85
2022/10/23 09:11:36;;;;;;;14.52;10.20;;;14.10;99.90;;;;;;6107980;23;20017;-85
2022/10/23 09:14:28;;;;;;;13.73;10.40;;;14.30;99.90;;;;;;6084606;23;20473;-85
2022/10/23 09:17:07;;;;;;;13.85;10.18;;;14.40;99.90;;;;;;6109875;23;20018;-86
2022/10/23 09:19:32;;;;;;;19.38;10.00;;;14.40;99.90;;;;;;6085366;23;20014;-85
2022/10/23 09:21:59;;;;;;;17.65;10.07;;;14.60;99.90;;;;;;6083585;23;20025;-86
2022/10/23 09:24:30;;;;;;;13.65;9.00;;;14.70;99.90;;;;;;6109071;23;20025;-85
2022/10/23 09:27:02;;;;;;;18.40;8.95;;;14.80;99.90;;;;;;6084160;23;20018;-86
2022/10/23 09:29:34;;;;;;;12.50;9.13;;;14.70;99.90;;;;;;6085301;23;20096;-85
2022/10/23 09:32:05;;;;;;;15.60;9.07;;;15.00;99.90;;;;;;6084501;23;20017;-86
2022/10/23 09:34:36;;;;;;;12.32;8.15;;;14.70;99.90;;;;;;6084849;23;20018;-85
2022/10/23 09:37:23;;;;;;;17.38;9.52;;;15.00;99.90;;;;;;6108525;23;20064;-85
2022/10/23 09:40:32;;;;;;;14.23;8.47;;;15.00;99.90;;;;;;6106719;23;20070;-86
2022/10/23 09:43:14;;;;;;;12.20;7.75;;;15.20;99.90;;;;;;6076074;23;20032;-85
2022/10/23 09:45:42;;;;;;;14.45;8.35;;;15.00;99.90;;;;;;6084717;23;20455;-86
2022/10/23 09:48:21;;;;;;;15.45;8.07;;;15.20;99.90;;;;;;6086128;23;20367;-85
2022/10/23 09:50:55;;;;;;;11.30;8.18;;;15.20;99.90;;;;;;6085481;23;20014;-86
2022/10/23 09:53:35;;;;;;;11.63;7.88;;;15.30;99.90;;;;;;6108008;23;20018;-86
2022/10/23 09:56:21;;;;;;;11.68;7.88;;;15.10;99.90;;;;;;6106134;23;20025;-85
2022/10/23 09:59:08;;;;;;;14.38;7.30;;;15.10;99.90;;;;;;6085181;23;20360;-86
2022/10/23 10:01:43;;;;;;;12.30;6.95;;;15.30;99.90;;;;;;6084396;23;20014;-86
2022/10/23 10:04:13;;;;;;;10.98;7.00;;;15.40;99.90;;;;;;6085622;23;20328;-85
2022/10/23 10:06:42;;;;;;;12.98;6.68;;;15.30;99.90;;;;;;6109825;23;20228;-86
2022/10/23 10:09:15;;;;;;;11.00;6.13;;;15.40;99.90;;;;;;6107393;23;20025;-86
2022/10/23 10:11:55;;;;;;;10.80;6.15;;;15.30;99.90;;;;;;6083051;23;20033;-86
2022/10/23 10:14:41;;;;;;;9.40;6.00;;;15.50;99.90;;;;;;6107897;23;20118;-85
2022/10/23 10:17:44;;;;;;;13.18;5.88;;;15.40;99.90;;;;;;6109345;23;20443;-86
2022/10/23 10:20:43;;;;;;;14.82;6.13;;;15.70;99.90;;;;;;6109016;23;20022;-85
2022/10/23 10:23:27;;;;;;;9.90;5.82;;;15.70;99.90;;;;;;6083239;23;20114;-85
2022/10/23 10:26:14;;;;;;;12.52;6.03;;;15.60;99.90;;;;;;6103848;23;20073;-85
2022/10/23 10:29:01;;;;;;;10.73;5.68;;;15.80;99.90;;;;;;6085500;23;20447;-85
2022/10/23 10:31:39;;;;;;;8.93;5.57;;;16.10;99.90;;;;;;6084012;23;20147;-85
2022/10/23 10:34:23;;;;;;;11.30;5.65;;;16.10;99.90;;;;;;6083397;23;20444;-86
2022/10/23 10:36:55;;;;;;;10.95;5.13;;;16.20;99.90;;;;;;6085022;23;20101;-85
2022/10/23 10:39:20;;;;;;;9.00;5.40;;;16.40;99.90;;;;;;6083561;23;20478;-85
2022/10/23 10:41:57;;;;;;;9.85;4.97;;;16.50;99.90;;;;;;6106314;23;20014;-86
2022/10/23 10:45:04;;;;;;;9.93;4.80;;;16.50;99.90;;;;;;6083766;23;20018;-85
2022/10/23 10:47:54;;;;;;;8.20;4.30;;;16.40;99.90;;;;;;6083488;23;20069;-85
2022/10/23 10:50:41;;;;;;;7.28;4.22;;;16.40;99.90;;;;;;6108717;23;20101;-85
2022/10/23 10:53:26;;;;;;;8.02;4.07;;;16.60;99.90;;;;;;6083754;23;20132;-85
2022/10/23 10:55:58;;;;;;;8.20;4.00;;;16.50;99.90;;;;;;6080534;23;20455;-85
2022/10/23 10:58:38;;;;;;;6.60;4.10;;;16.60;99.90;;;;;;6084343;23;20010;-85
2022/10/23 11:01:32;;;;;;;11.55;4.50;;;16.80;99.90;;;;;;6083113;23;20013;-85
2022/10/23 11:04:05;;;;;;;6.75;3.42;;;16.70;99.90;;;;;;6083864;23;20125;-86
2022/10/23 11:06:35;;;;;;;9.50;3.58;;;16.70;99.90;;;;;;6083080;23;20111;-85
2022/10/23 11:09:09;;;;;;;8.15;4.18;;;16.60;99.90;;;;;;6107574;23;20128;-85
2022/10/23 11:11:39;;;;;;;7.35;3.78;;;16.70;99.90;;;;;;6107916;23;20344;-85
2022/10/23 11:14:13;;;;;;;9.93;4.10;;;16.80;99.90;;;;;;6086888;23;20259;-84
2022/10/23 11:16:44;;;;;;;10.93;3.80;;;16.80;99.90;;;;;;6086409;23;20014;-85
2022/10/23 11:19:31;;;;;;;7.50;3.70;;;16.80;99.90;;;;;;6111065;23;20539;-85
2022/10/23 11:22:15;;;;;;;9.30;3.88;;;16.80;99.90;;;;;;6084711;23;20014;-85
2022/10/23 11:25:02;;;;;;;10.00;3.97;;;16.80;99.90;;;;;;6083457;23;20018;-85
2022/10/23 11:27:46;;;;;;;11.10;3.75;;;16.80;99.90;;;;;;6083878;23;20375;-85
2022/10/23 11:30:31;;;;;;;10.13;4.40;;;16.70;99.90;;;;;;6085950;23;20018;-84
2022/10/23 11:33:05;;;;;;;10.65;4.25;;;16.60;99.90;;;;;;6085921;23;20101;-84
2022/10/23 11:36:17;;;;;;;10.90;3.90;;;16.60;99.90;;;;;;6086326;23;20024;-85
2022/10/23 11:38:46;;;;;;;9.10;3.60;;;16.60;99.90;;;;;;6084401;23;20093;-86
2022/10/23 11:41:23;;;;;;;6.18;3.50;;;16.60;99.90;;;;;;6083888;23;20018;-85
2022/10/23 11:43:55;;;;;;;12.60;4.05;;;16.50;99.90;;;;;;6086390;23;20108;-86
2022/10/23 11:46:27;;;;;;;5.72;3.67;;;16.50;99.90;;;;;;6109453;23;20014;-85
2022/10/23 11:48:54;;;;;;;8.38;3.80;;;16.50;99.90;;;;;;6086104;23;20020;-85
2022/10/23 11:51:36;;;;;;;9.43;4.38;;;16.40;99.90;;;;;;6085764;23;20049;-85
2022/10/23 11:54:15;;;;;;;7.68;4.32;;;16.30;99.90;;;;;;6084669;23;20022;-86
2022/10/23 11:56:54;;;;;;;7.60;4.13;;;16.30;99.90;;;;;;6084747;23;20351;-85
2022/10/23 11:59:32;;;;;;;11.48;4.53;;;16.20;99.90;;;;;;6085094;23;20477;-85
2022/10/23 12:02:04;;;;;;;7.93;4.72;;;16.20;99.90;;;;;;6086398;23;20010;-85
2022/10/23 12:04:39;;;;;;;9.57;4.45;;;16.10;99.90;;;;;;6086357;23;20048;-85
2022/10/23 12:07:19;;;;;;;12.02;5.00;;;16.30;99.90;;;;;;6109789;23;20561;-85
2022/10/23 12:09:53;;;;;;;6.03;4.25;;;16.30;99.90;;;;;;6085017;23;20441;-85
2022/10/23 12:12:31;;;;;;;8.10;4.25;;;16.20;99.90;;;;;;6084989;23;20017;-86
2022/10/23 12:15:20;;;;;;;7.20;4.05;;;16.30;99.90;;;;;;6084790;23;20022;-84
2022/10/23 12:17:47;;;;;;;6.22;4.20;;;16.40;99.90;;;;;;6085669;23;20026;-86
2022/10/23 12:20:13;;;;;;;10.40;4.70;;;16.40;99.90;;;;;;6084612;23;20347;-85
2022/10/23 12:22:58;;;;;;;9.82;3.90;;;16.40;99.90;;;;;;6085733;23;20018;-85
2022/10/23 12:25:57;;;;;;;7.50;4.10;;;16.40;99.90;;;;;;6106551;23;20021;-84
2022/10/23 12:28:40;;;;;;;9.00;4.70;;;16.40;99.90;;;;;;6085427;23;20100;-85
2022/10/23 12:31:33;;;;;;;7.65;4.00;;;16.70;99.90;;;;;;6085879;23;20026;-84
2022/10/23 12:34:25;;;;;;;15.85;4.38;;;16.50;99.90;;;;;;6085666;23;20359;-85
2022/10/23 12:37:24;;;;;;;5.60;3.72;;;16.60;99.90;;;;;;6108999;23;20053;-85
2022/10/23 12:39:53;;;;;;;11.35;4.43;;;16.60;99.90;;;;;;6108006;23;20025;-85
2022/10/23 12:42:28;;;;;;;7.40;4.82;;;16.70;99.90;;;;;;6083180;23;20010;-85
2022/10/23 12:45:04;;;;;;;11.77;4.82;;;16.70;99.90;;;;;;6085844;23;20056;-85
2022/10/23 12:47:30;;;;;;;8.07;4.55;;;16.60;99.90;;;;;;6110503;23;20014;-86
2022/10/23 12:49:56;;;;;;;8.65;4.30;;;16.70;99.90;;;;;;6110208;23;20020;-85
2022/10/23 12:52:24;;;;;;;8.38;4.13;;;16.60;99.90;;;;;;6085342;23;20056;-85
2022/10/23 12:54:52;;;;;;;12.57;4.82;;;16.70;99.90;;;;;;6108242;23;20391;-85
2022/10/23 12:57:25;;;;;;;9.15;3.67;;;16.60;99.90;;;;;;6083473;23;20017;-85
2022/10/23 12:59:56;;;;;;;7.13;3.45;;;16.60;99.90;;;;;;6109838;23;20006;-85
2022/10/23 13:02:25;;;;;;;6.95;3.90;;;16.70;99.90;;;;;;6086289;23;20072;-84
2022/10/23 13:04:52;;;;;;;7.55;3.53;;;16.60;99.90;;;;;;6086487;23;20014;-85